Time;durP1;ratioP1;P1;durP2;ratioP2;P2;SDS_P1;SDS_P2;PMS_P1;PMS_P2;Temp;Humidity;BMP_temperature;BMP_pressure;BME280_temperature;BME280_humidity;BME280_pressure;Samples;Min_cycle;Max_cycle;Signal;HPM_P1;HPM_P2
2023/01/24 00:01:16;;;;;;;279.40;101.22;;;4.90;99.90;;;;;;5117158;28;20088;-58
2023/01/24 00:03:42;;;;;;;311.27;106.53;;;4.90;99.90;;;;;;5117480;28;20459;-58
2023/01/24 00:06:08;;;;;;;316.90;105.35;;;4.90;99.90;;;;;;5117135;28;20132;-58
2023/01/24 00:08:34;;;;;;;299.45;102.93;;;5.00;99.90;;;;;;5117081;28;20035;-58
2023/01/24 00:11:08;;;;;;;290.10;101.88;;;4.90;99.90;;;;;;5116880;28;20024;-58
2023/01/24 00:13:36;;;;;;;357.35;108.18;;;4.80;99.90;;;;;;5116952;28;20038;-58
2023/01/24 00:16:16;;;;;;;268.38;91.68;;;4.80;99.90;;;;;;5116887;28;20024;-58
2023/01/24 00:18:43;;;;;;;319.35;94.65;;;4.80;99.90;;;;;;5116633;28;20035;-58
2023/01/24 00:21:15;;;;;;;266.67;87.95;;;4.70;99.90;;;;;;5116801;28;20026;-58
2023/01/24 00:23:42;;;;;;;299.05;89.47;;;4.80;99.90;;;;;;5116607;28;20028;-58
2023/01/24 00:26:09;;;;;;;266.23;88.57;;;4.70;99.90;;;;;;5116686;28;20032;-58
2023/01/24 00:28:35;;;;;;;232.30;84.30;;;4.70;99.90;;;;;;5116792;28;20032;-58
2023/01/24 00:31:01;;;;;;;251.55;84.45;;;4.80;99.90;;;;;;5116431;28;20032;-58
2023/01/24 00:33:27;;;;;;;221.32;76.90;;;4.80;99.90;;;;;;5116546;28;20408;-58
2023/01/24 00:35:53;;;;;;;206.70;74.50;;;4.80;99.90;;;;;;5115238;28;20461;-58
2023/01/24 00:38:21;;;;;;;221.60;78.10;;;4.80;99.90;;;;;;5116443;28;20043;-58
2023/01/24 00:40:47;;;;;;;206.93;75.38;;;4.80;99.90;;;;;;5115103;28;20032;-58
2023/01/24 00:43:13;;;;;;;254.55;78.60;;;4.70;99.90;;;;;;5116377;28;20055;-58
2023/01/24 00:45:40;;;;;;;235.80;75.57;;;4.70;99.90;;;;;;5116360;28;20027;-58
2023/01/24 00:48:07;;;;;;;237.18;75.40;;;4.70;99.90;;;;;;5116357;28;20031;-58
2023/01/24 00:50:34;;;;;;;248.80;78.93;;;4.60;99.90;;;;;;5114856;28;20032;-58
2023/01/24 00:53:01;;;;;;;189.60;68.65;;;4.70;99.90;;;;;;5116124;28;20027;-58
2023/01/24 00:55:27;;;;;;;202.75;71.60;;;4.60;99.90;;;;;;5114876;28;20023;-58
2023/01/24 00:57:53;;;;;;;187.55;64.90;;;4.60;99.90;;;;;;5116131;28;20065;-58
2023/01/24 01:00:20;;;;;;;192.73;67.38;;;4.60;99.90;;;;;;5115861;28;20454;-58
2023/01/24 01:02:47;;;;;;;174.07;66.35;;;4.60;99.90;;;;;;5115764;28;20039;-58
2023/01/24 01:05:13;;;;;;;185.13;64.95;;;4.60;99.90;;;;;;5116264;28;20460;-58
2023/01/24 01:07:40;;;;;;;151.60;56.38;;;4.60;99.90;;;;;;5114434;28;20031;-58
2023/01/24 01:10:06;;;;;;;162.52;64.18;;;4.60;99.90;;;;;;5115846;28;20542;-58
2023/01/24 01:12:32;;;;;;;151.63;57.47;;;4.60;99.90;;;;;;5115901;28;20034;-58
2023/01/24 01:14:58;;;;;;;156.32;55.50;;;4.60;99.90;;;;;;5114385;28;20027;-58
2023/01/24 01:17:24;;;;;;;140.18;54.25;;;4.70;99.90;;;;;;5114212;28;20039;-58
2023/01/24 01:19:53;;;;;;;151.88;56.10;;;4.60;99.90;;;;;;5097322;28;20089;-58
2023/01/24 01:22:20;;;;;;;134.90;51.25;;;4.60;99.90;;;;;;5115404;28;20055;-58
2023/01/24 01:24:46;;;;;;;139.70;52.55;;;4.50;99.90;;;;;;5115758;28;20038;-58
2023/01/24 01:27:12;;;;;;;137.45;51.97;;;4.50;99.90;;;;;;5115457;28;20028;-58
2023/01/24 01:29:38;;;;;;;136.32;50.03;;;4.50;99.90;;;;;;5115414;28;20069;-58
2023/01/24 01:32:04;;;;;;;161.02;54.75;;;4.50;99.90;;;;;;5115292;28;20485;-58
2023/01/24 01:34:30;;;;;;;142.15;54.90;;;4.40;99.90;;;;;;5113539;28;20046;-58
2023/01/24 01:36:57;;;;;;;132.50;50.83;;;4.40;99.90;;;;;;5115421;27;20112;-58
2023/01/24 01:39:23;;;;;;;132.18;50.45;;;4.40;99.90;;;;;;5115236;28;20028;-58
2023/01/24 01:41:49;;;;;;;141.00;51.60;;;4.40;99.90;;;;;;5115235;28;20032;-58
2023/01/24 01:47:33;;;;;;;113.28;47.95;;;4.40;99.90;;;;;;5052128;28;20082;-58
2023/01/24 01:50:19;;;;;;;134.75;53.42;;;4.40;99.90;;;;;;5052021;28;20043;-58
2023/01/24 01:52:45;;;;;;;124.38;49.80;;;4.40;99.90;;;;;;5035276;28;20033;-58
2023/01/24 01:55:17;;;;;;;123.68;51.78;;;4.30;99.90;;;;;;5051903;28;20033;-58
2023/01/24 01:57:45;;;;;;;122.38;51.03;;;4.30;99.90;;;;;;5052060;28;20057;-58
2023/01/24 02:00:12;;;;;;;134.43;50.03;;;4.30;99.90;;;;;;5035000;28;20037;-58
2023/01/24 02:02:41;;;;;;;121.13;48.95;;;4.30;99.90;;;;;;5051916;28;20056;-58
2023/01/24 02:05:10;;;;;;;133.23;52.05;;;4.30;99.90;;;;;;5035065;28;20675;-58
2023/01/24 02:07:53;;;;;;;128.35;52.92;;;4.30;99.90;;;;;;5035194;28;20275;-58
2023/01/24 02:10:22;;;;;;;138.85;54.45;;;4.20;99.90;;;;;;5051678;28;20545;-58
2023/01/24 02:12:53;;;;;;;141.75;55.03;;;4.30;99.90;;;;;;5051758;28;20037;-58
2023/01/24 02:18:09;;;;;;;138.73;54.50;;;4.40;99.90;;;;;;5051712;28;20057;-58
2023/01/24 02:20:45;;;;;;;137.48;54.95;;;4.40;99.90;;;;;;5043841;28;20393;-58
2023/01/24 02:23:17;;;;;;;149.80;57.45;;;4.40;99.90;;;;;;5114906;28;20015;-58
2023/01/24 02:26:09;;;;;;;141.65;54.45;;;4.30;99.90;;;;;;5114765;28;20473;-58
2023/01/24 02:28:38;;;;;;;126.38;51.70;;;4.30;99.90;;;;;;5113374;28;20040;-58
2023/01/24 02:31:05;;;;;;;124.15;51.03;;;4.40;99.90;;;;;;5114767;28;20027;-58
2023/01/24 02:33:32;;;;;;;132.60;52.17;;;4.40;99.90;;;;;;5113406;28;20031;-58
2023/01/24 02:36:14;;;;;;;121.90;49.67;;;4.40;99.90;;;;;;5114700;28;20523;-58
2023/01/24 02:38:43;;;;;;;127.70;50.78;;;4.40;99.90;;;;;;5113297;28;20028;-58
2023/01/24 02:41:09;;;;;;;111.22;48.72;;;4.50;99.90;;;;;;5113415;28;20337;-58
2023/01/24 02:43:42;;;;;;;118.78;53.13;;;4.40;99.90;;;;;;5113397;28;20108;-58
2023/01/24 02:46:08;;;;;;;108.25;47.70;;;4.40;99.90;;;;;;5116336;28;20218;-58
2023/01/24 02:48:34;;;;;;;104.47;47.38;;;4.40;99.90;;;;;;5118673;28;20070;-58
2023/01/24 02:53:44;;;;;;;96.55;45.72;;;4.30;99.90;;;;;;5118334;28;20035;-58
2023/01/24 02:58:58;;;;;;;99.97;45.13;;;4.40;99.90;;;;;;5117086;28;20393;-58
2023/01/24 03:01:24;;;;;;;97.95;44.75;;;4.40;99.90;;;;;;5116818;28;20048;-58
2023/01/24 03:03:55;;;;;;;97.55;46.20;;;4.40;99.90;;;;;;5116763;28;20032;-58
2023/01/24 03:06:21;;;;;;;99.22;45.83;;;4.40;99.90;;;;;;5116884;28;20031;-58
2023/01/24 03:08:47;;;;;;;101.63;48.72;;;4.40;99.90;;;;;;5116896;28;20023;-58
2023/01/24 03:11:22;;;;;;;100.10;46.85;;;4.40;99.90;;;;;;5116871;28;20023;-58
2023/01/24 03:35:54;;;;;;;97.53;44.45;;;4.30;99.90;;;;;;5095914;28;20036;-58
2023/01/24 03:41:09;;;;;;;96.22;41.85;;;4.40;99.90;;;;;;5095923;28;20032;-58
2023/01/24 03:43:37;;;;;;;77.90;35.97;;;4.40;99.90;;;;;;5112809;28;20117;-58
2023/01/24 03:46:04;;;;;;;81.28;37.28;;;4.40;99.90;;;;;;5095875;28;20028;-58
2023/01/24 03:48:50;;;;;;;82.75;37.97;;;4.40;99.90;;;;;;5096541;28;20092;-58
2023/01/24 03:54:03;;;;;;;84.80;36.50;;;4.30;99.90;;;;;;5095723;28;20043;-58
2023/01/24 03:56:37;;;;;;;84.55;36.53;;;4.20;99.90;;;;;;5111867;28;20059;-58
2023/01/24 03:59:06;;;;;;;59.05;30.67;;;4.30;99.90;;;;;;5112598;28;20028;-58
2023/01/24 04:01:35;;;;;;;59.67;27.98;;;4.30;99.90;;;;;;5112478;28;20516;-58
2023/01/24 04:04:11;;;;;;;51.00;27.23;;;4.40;99.90;;;;;;5095460;28;20385;-58
2023/01/24 04:06:37;;;;;;;54.35;26.98;;;4.40;99.90;;;;;;5095504;28;20115;-58
2023/01/24 04:09:06;;;;;;;41.05;24.38;;;4.50;99.90;;;;;;5095447;28;20109;-58
2023/01/24 04:11:35;;;;;;;45.03;23.08;;;4.50;99.90;;;;;;5095123;28;20028;-58
2023/01/24 04:14:21;;;;;;;51.33;27.67;;;4.50;99.90;;;;;;5096638;28;20031;-58
2023/01/24 04:16:56;;;;;;;51.30;27.52;;;4.50;99.90;;;;;;5096390;28;20024;-58
2023/01/24 04:19:27;;;;;;;44.22;25.08;;;4.50;99.90;;;;;;5112272;28;20024;-58
2023/01/24 04:21:53;;;;;;;41.50;23.17;;;4.50;99.90;;;;;;5096478;28;20477;-58
2023/01/24 04:24:19;;;;;;;40.22;23.27;;;4.40;99.90;;;;;;5096436;28;20039;-58
2023/01/24 04:26:45;;;;;;;44.67;26.15;;;4.50;99.90;;;;;;5112183;28;20631;-58
2023/01/24 04:29:17;;;;;;;45.95;24.50;;;4.40;99.90;;;;;;5115267;28;20485;-58
2023/01/24 04:31:46;;;;;;;46.70;22.92;;;4.40;99.90;;;;;;5115241;28;20063;-58
2023/01/24 04:34:27;;;;;;;57.10;23.83;;;4.40;99.90;;;;;;5115489;28;20058;-58
2023/01/24 04:36:53;;;;;;;49.30;22.98;;;4.40;99.90;;;;;;5115299;28;20034;-58
2023/01/24 04:39:20;;;;;;;49.00;24.40;;;4.40;99.90;;;;;;5115208;28;20015;-58
2023/01/24 04:42:08;;;;;;;52.78;25.13;;;4.50;99.90;;;;;;5115122;28;20070;-58
2023/01/24 04:44:34;;;;;;;41.28;22.85;;;4.50;99.90;;;;;;5116565;28;20115;-58
2023/01/24 04:47:00;;;;;;;49.83;24.33;;;4.40;99.90;;;;;;5115002;28;20067;-58
2023/01/24 04:49:26;;;;;;;47.40;24.55;;;4.30;99.90;;;;;;5115013;28;20491;-58
2023/01/24 04:51:52;;;;;;;48.83;24.52;;;4.30;99.90;;;;;;5114862;28;20070;-58
2023/01/24 04:54:23;;;;;;;45.55;24.90;;;4.30;99.90;;;;;;5114851;28;20039;-58
2023/01/24 04:56:50;;;;;;;53.42;25.35;;;4.40;99.90;;;;;;5114894;28;20027;-58
2023/01/24 04:59:17;;;;;;;54.17;25.38;;;4.40;99.90;;;;;;5114930;28;20023;-58
2023/01/24 05:01:44;;;;;;;44.05;25.60;;;4.40;99.90;;;;;;5114537;28;20059;-58
2023/01/24 05:04:22;;;;;;;56.20;26.58;;;4.40;99.90;;;;;;5114766;28;20020;-58
2023/01/24 05:06:49;;;;;;;62.60;28.60;;;4.40;99.90;;;;;;5116041;28;20102;-58
2023/01/24 05:09:15;;;;;;;49.13;26.23;;;4.50;99.90;;;;;;5113555;28;20031;-58
2023/01/24 05:11:57;;;;;;;50.75;26.63;;;4.50;99.90;;;;;;5114365;28;20108;-58
2023/01/24 05:14:23;;;;;;;52.72;28.23;;;4.50;99.90;;;;;;5114558;28;20085;-58
2023/01/24 05:16:49;;;;;;;62.38;30.17;;;4.50;99.90;;;;;;5114498;28;20484;-58
2023/01/24 05:19:15;;;;;;;57.33;30.60;;;4.40;99.90;;;;;;5114360;28;20435;-58
2023/01/24 05:21:41;;;;;;;71.90;33.78;;;4.40;99.90;;;;;;5114402;28;20100;-58
2023/01/24 05:24:08;;;;;;;80.60;36.88;;;4.40;99.90;;;;;;5114205;28;20040;-58
2023/01/24 05:26:35;;;;;;;84.35;37.00;;;4.40;99.90;;;;;;5114154;28;20515;-58
2023/01/24 05:29:01;;;;;;;79.75;37.78;;;4.50;99.90;;;;;;5114201;28;20028;-58
2023/01/24 05:31:28;;;;;;;85.07;39.35;;;4.40;99.90;;;;;;5114132;28;20077;-58
2023/01/24 05:33:54;;;;;;;84.75;38.00;;;4.50;99.90;;;;;;5115354;28;20039;-58
2023/01/24 05:36:23;;;;;;;91.03;41.22;;;4.40;99.90;;;;;;5114164;28;20049;-58
2023/01/24 05:38:50;;;;;;;98.60;41.58;;;4.40;99.90;;;;;;5114155;28;20020;-58
2023/01/24 05:41:18;;;;;;;89.88;40.58;;;4.30;99.90;;;;;;5113959;28;20028;-59
2023/01/24 05:43:46;;;;;;;94.05;40.63;;;4.20;99.90;;;;;;5113975;28;20625;-58
2023/01/24 05:46:18;;;;;;;108.03;44.80;;;4.20;99.90;;;;;;5113917;28;20434;-58
2023/01/24 05:48:54;;;;;;;111.03;46.72;;;4.10;99.90;;;;;;5113967;28;20035;-58
2023/01/24 05:51:21;;;;;;;106.20;45.00;;;4.30;99.90;;;;;;5113773;28;20110;-58
2023/01/24 05:53:48;;;;;;;85.10;40.58;;;4.30;99.90;;;;;;5113833;28;20038;-58
2023/01/24 05:56:25;;;;;;;76.00;37.88;;;4.20;99.90;;;;;;5113743;28;20115;-58
2023/01/24 05:58:51;;;;;;;74.43;36.65;;;4.20;99.90;;;;;;5113597;28;20019;-58
2023/01/24 06:01:20;;;;;;;75.47;36.83;;;4.20;99.90;;;;;;5113664;28;20036;-58
2023/01/24 06:03:53;;;;;;;71.03;33.47;;;4.20;99.90;;;;;;5113875;28;20028;-58
2023/01/24 06:06:22;;;;;;;40.58;23.33;;;4.20;99.90;;;;;;5113727;28;20035;-58
2023/01/24 06:08:49;;;;;;;53.50;25.60;;;4.30;99.90;;;;;;5115010;28;20027;-58
2023/01/24 06:11:18;;;;;;;46.00;24.20;;;4.30;99.90;;;;;;5113562;28;20035;-58
2023/01/24 06:13:45;;;;;;;40.80;21.88;;;4.30;99.90;;;;;;5113522;28;20027;-58
2023/01/24 06:16:14;;;;;;;40.72;22.33;;;4.30;99.90;;;;;;5113578;28;20396;-58
2023/01/24 06:18:41;;;;;;;45.38;23.35;;;4.30;99.90;;;;;;5113379;28;20112;-58
2023/01/24 06:21:27;;;;;;;52.55;23.65;;;4.20;99.90;;;;;;5117653;28;20078;-58
2023/01/24 06:23:54;;;;;;;32.65;18.45;;;4.20;99.90;;;;;;5117590;28;20102;-58
2023/01/24 06:26:21;;;;;;;27.38;17.30;;;4.30;99.90;;;;;;5117708;28;20063;-58
2023/01/24 06:28:48;;;;;;;32.50;18.88;;;4.30;99.90;;;;;;5119035;28;20030;-58
2023/01/24 06:31:33;;;;;;;24.63;15.85;;;4.20;99.90;;;;;;5118854;28;20409;-58
2023/01/24 06:34:15;;;;;;;31.40;16.85;;;4.20;99.90;;;;;;5115154;28;20032;-58
2023/01/24 06:36:59;;;;;;;27.67;16.67;;;4.20;99.90;;;;;;5118420;28;20051;-58
2023/01/24 06:39:26;;;;;;;34.75;16.30;;;4.10;99.90;;;;;;5118485;28;20468;-58
2023/01/24 06:41:52;;;;;;;22.77;12.50;;;4.20;99.90;;;;;;5113401;27;20023;-58
2023/01/24 06:44:18;;;;;;;22.25;13.15;;;4.10;99.90;;;;;;5116770;28;20243;-58
2023/01/24 06:46:44;;;;;;;25.60;14.38;;;4.10;99.90;;;;;;5117839;28;20389;-58
2023/01/24 06:49:11;;;;;;;33.10;13.90;;;4.20;99.90;;;;;;5112361;28;20036;-58
2023/01/24 06:51:37;;;;;;;29.83;16.80;;;4.10;99.90;;;;;;5102897;28;20085;-58
2023/01/24 06:54:03;;;;;;;35.60;14.88;;;4.10;99.90;;;;;;5109797;28;20376;-58
2023/01/24 06:56:29;;;;;;;23.90;13.85;;;4.10;99.90;;;;;;5098620;28;20048;-58
2023/01/24 06:58:55;;;;;;;43.13;16.02;;;3.90;99.90;;;;;;5098499;28;20066;-58
2023/01/24 07:01:21;;;;;;;33.05;15.23;;;3.90;99.90;;;;;;5098284;28;20036;-58
2023/01/24 07:03:47;;;;;;;17.58;11.32;;;4.00;99.90;;;;;;5111734;28;20106;-58
2023/01/24 07:06:13;;;;;;;25.25;13.35;;;4.10;99.90;;;;;;5119044;28;20126;-58
2023/01/24 07:08:39;;;;;;;24.20;12.52;;;4.00;99.90;;;;;;5118439;28;20027;-58
2023/01/24 07:11:05;;;;;;;28.30;15.32;;;4.00;99.90;;;;;;5117284;28;20032;-58
2023/01/24 07:13:31;;;;;;;21.75;13.27;;;4.00;99.90;;;;;;5118910;28;20063;-58
2023/01/24 07:16:00;;;;;;;28.08;15.10;;;3.80;99.90;;;;;;5118722;28;20027;-58
2023/01/24 07:18:27;;;;;;;29.77;14.45;;;3.80;99.90;;;;;;5118660;28;20418;-58
2023/01/24 07:20:56;;;;;;;36.65;15.48;;;3.90;99.90;;;;;;5118821;28;20054;-58
2023/01/24 07:23:25;;;;;;;32.78;16.75;;;3.90;99.90;;;;;;5118565;28;20093;-58
2023/01/24 07:26:00;;;;;;;37.90;14.88;;;3.90;99.90;;;;;;5117671;28;20040;-58
2023/01/24 07:28:26;;;;;;;28.05;14.00;;;3.90;99.90;;;;;;5117678;28;20110;-58
2023/01/24 07:30:53;;;;;;;51.30;22.75;;;3.90;99.90;;;;;;5117290;28;20041;-58
2023/01/24 07:33:19;;;;;;;48.00;18.45;;;4.00;99.90;;;;;;5116863;28;20035;-58
2023/01/24 07:35:45;;;;;;;36.83;16.02;;;4.00;99.90;;;;;;5117678;28;20043;-58
2023/01/24 07:38:12;;;;;;;27.08;14.75;;;4.00;99.90;;;;;;5117660;28;20023;-58
2023/01/24 07:40:38;;;;;;;31.38;15.68;;;4.00;99.90;;;;;;5117308;28;20032;-58
2023/01/24 07:43:05;;;;;;;30.52;15.98;;;3.80;99.90;;;;;;5117426;28;20581;-58
2023/01/24 07:45:32;;;;;;;26.63;15.95;;;3.90;99.90;;;;;;5117349;28;20080;-58
2023/01/24 07:47:59;;;;;;;27.75;15.23;;;3.70;99.90;;;;;;5117300;28;20077;-58
2023/01/24 07:50:25;;;;;;;27.95;15.70;;;3.80;99.90;;;;;;5117256;28;20039;-58
2023/01/24 07:52:52;;;;;;;22.75;14.05;;;3.90;99.90;;;;;;5117150;28;20043;-58
2023/01/24 07:55:22;;;;;;;34.60;17.10;;;3.80;99.90;;;;;;5109585;28;20020;-58
2023/01/24 07:57:48;;;;;;;28.23;19.05;;;3.80;99.90;;;;;;5102956;28;20430;-58
2023/01/24 08:00:15;;;;;;;24.52;16.40;;;3.80;99.90;;;;;;5117086;28;20035;-58
2023/01/24 08:02:42;;;;;;;29.80;18.02;;;3.60;99.90;;;;;;5117185;27;20059;-58
2023/01/24 08:05:08;;;;;;;35.20;17.52;;;3.60;99.90;;;;;;5116975;27;20031;-58
2023/01/24 08:07:35;;;;;;;28.90;13.35;;;3.60;99.90;;;;;;5117012;28;20032;-58
2023/01/24 08:10:01;;;;;;;24.42;13.65;;;3.80;99.90;;;;;;5116806;28;20368;-58
2023/01/24 08:12:36;;;;;;;23.33;13.35;;;3.70;99.90;;;;;;5116458;28;20061;-58
2023/01/24 08:15:02;;;;;;;24.92;14.23;;;3.60;99.90;;;;;;5117068;28;20083;-58
2023/01/24 08:17:28;;;;;;;17.50;10.98;;;3.70;99.90;;;;;;5113669;28;20027;-58
2023/01/24 08:19:54;;;;;;;20.08;12.02;;;3.60;99.90;;;;;;5116801;28;20064;-58
2023/01/24 08:22:20;;;;;;;28.23;16.23;;;3.70;99.90;;;;;;5107764;28;20035;-58
2023/01/24 08:24:47;;;;;;;21.35;13.63;;;3.70;99.90;;;;;;5104221;28;20477;-58
2023/01/24 08:27:13;;;;;;;23.88;11.32;;;3.70;99.90;;;;;;5104918;28;20039;-58
2023/01/24 08:29:39;;;;;;;11.68;8.50;;;3.60;99.90;;;;;;5115480;27;20029;-58
2023/01/24 08:32:05;;;;;;;22.25;12.80;;;3.60;99.90;;;;;;5115392;28;20028;-58
2023/01/24 08:34:31;;;;;;;24.70;14.05;;;3.60;99.90;;;;;;5111681;28;20534;-58
2023/01/24 08:36:57;;;;;;;27.40;18.80;;;3.60;99.90;;;;;;5114909;28;20118;-58
2023/01/24 08:39:23;;;;;;;26.45;17.25;;;3.70;99.90;;;;;;5115716;28;20019;-58
2023/01/24 08:41:49;;;;;;;25.52;15.18;;;3.70;99.90;;;;;;5105014;28;20362;-58
2023/01/24 08:44:15;;;;;;;20.08;13.27;;;3.60;99.90;;;;;;5110843;28;20031;-58
2023/01/24 08:46:42;;;;;;;17.02;12.27;;;3.80;99.90;;;;;;5110469;28;20032;-58
2023/01/24 08:49:10;;;;;;;19.70;12.45;;;3.70;99.90;;;;;;5115948;28;20015;-58
2023/01/24 08:51:36;;;;;;;19.73;12.85;;;3.70;99.90;;;;;;5116246;28;20103;-58
2023/01/24 08:54:08;;;;;;;28.83;18.75;;;3.80;99.90;;;;;;5110981;28;20107;-58
2023/01/24 08:56:34;;;;;;;25.00;15.32;;;3.70;99.90;;;;;;5111401;28;20020;-58
2023/01/24 08:59:00;;;;;;;31.75;18.52;;;3.80;99.90;;;;;;5113745;27;20028;-58
2023/01/24 09:01:26;;;;;;;28.80;15.70;;;3.80;99.90;;;;;;5096186;28;20165;-58
2023/01/24 09:03:55;;;;;;;24.23;15.93;;;3.90;99.90;;;;;;5099478;28;20040;-58
2023/01/24 09:06:22;;;;;;;20.40;13.70;;;3.90;99.90;;;;;;5105423;28;20019;-58
2023/01/24 09:08:47;;;;;;;16.52;11.18;;;3.80;99.90;;;;;;5115389;27;20103;-58
2023/01/24 09:11:13;;;;;;;24.42;18.10;;;3.70;99.90;;;;;;5113068;28;20106;-58
2023/01/24 09:13:39;;;;;;;21.60;13.05;;;3.70;99.90;;;;;;5114066;28;20609;-58
2023/01/24 09:16:06;;;;;;;39.13;20.48;;;3.70;99.90;;;;;;5115349;28;20024;-58
2023/01/24 09:18:32;;;;;;;40.25;21.52;;;3.80;99.90;;;;;;5115518;28;20020;-58
2023/01/24 09:21:02;;;;;;;34.90;18.40;;;3.90;99.90;;;;;;5113915;28;20453;-58
2023/01/24 09:23:28;;;;;;;16.17;10.48;;;3.90;99.90;;;;;;5114611;28;20019;-58
2023/01/24 09:25:54;;;;;;;30.70;16.65;;;3.80;99.90;;;;;;5115387;28;20092;-58
2023/01/24 09:28:23;;;;;;;22.98;14.43;;;3.70;99.90;;;;;;5115396;28;20032;-58
2023/01/24 09:30:50;;;;;;;29.88;17.25;;;3.70;99.90;;;;;;5113025;28;20063;-58
2023/01/24 09:33:17;;;;;;;42.17;22.17;;;3.70;99.90;;;;;;5114010;28;20023;-58
2023/01/24 09:36:03;;;;;;;35.67;19.90;;;3.80;99.90;;;;;;5113305;28;20647;-58
2023/01/24 09:38:32;;;;;;;42.15;22.25;;;3.90;99.90;;;;;;5094662;28;20027;-58
2023/01/24 09:41:16;;;;;;;35.38;18.80;;;3.90;99.90;;;;;;5094490;28;20034;-58
2023/01/24 09:43:47;;;;;;;26.08;14.93;;;3.90;99.90;;;;;;5095904;28;20414;-58
2023/01/24 09:46:32;;;;;;;30.27;15.65;;;4.00;99.90;;;;;;5094602;28;20054;-58
2023/01/24 09:49:11;;;;;;;29.75;17.33;;;4.00;99.90;;;;;;5094459;28;20166;-58
2023/01/24 09:51:46;;;;;;;55.17;23.95;;;3.70;99.90;;;;;;5094434;28;20513;-58
2023/01/24 09:54:29;;;;;;;41.25;21.48;;;4.00;99.90;;;;;;5096529;28;20034;-58
2023/01/24 09:56:56;;;;;;;63.10;26.17;;;3.90;99.90;;;;;;5099106;28;20051;-58
2023/01/24 09:59:43;;;;;;;54.75;24.00;;;4.00;99.90;;;;;;5094492;28;20106;-58
2023/01/24 10:02:18;;;;;;;36.33;18.52;;;3.90;99.90;;;;;;5114549;28;20106;-58
2023/01/24 10:04:46;;;;;;;25.25;15.57;;;3.90;99.90;;;;;;5112965;28;20056;-58
2023/01/24 10:07:38;;;;;;;35.92;19.42;;;3.90;99.90;;;;;;5114750;28;20486;-58
2023/01/24 10:10:44;;;;;;;33.70;20.38;;;4.00;99.90;;;;;;5115385;28;20551;-58
2023/01/24 10:13:36;;;;;;;41.95;21.60;;;4.10;99.90;;;;;;5084081;28;20043;-58
2023/01/24 10:16:10;;;;;;;43.05;24.15;;;4.10;99.90;;;;;;5115127;28;20024;-58
2023/01/24 10:18:57;;;;;;;47.67;24.25;;;4.00;99.90;;;;;;5115632;28;20375;-58
2023/01/24 10:21:49;;;;;;;68.43;31.38;;;3.90;99.90;;;;;;5115347;28;20090;-58
2023/01/24 10:24:23;;;;;;;57.65;32.67;;;4.00;99.90;;;;;;5115762;28;20102;-58
2023/01/24 10:26:51;;;;;;;56.28;28.08;;;4.00;99.90;;;;;;5107194;28;20469;-58
2023/01/24 10:29:38;;;;;;;67.32;32.25;;;4.10;99.90;;;;;;5109255;28;20075;-58
2023/01/24 10:32:13;;;;;;;67.60;36.20;;;4.00;99.90;;;;;;5112049;28;20026;-58
2023/01/24 10:34:53;;;;;;;54.15;33.15;;;4.00;99.90;;;;;;5113644;28;20024;-58
2023/01/24 10:37:25;;;;;;;67.90;35.70;;;4.10;99.90;;;;;;5107114;28;20130;-58
2023/01/24 10:39:52;;;;;;;66.95;35.25;;;4.10;99.90;;;;;;5111933;28;20028;-58
2023/01/24 10:42:26;;;;;;;64.85;35.85;;;4.00;99.90;;;;;;5113988;28;20043;-58
2023/01/24 10:44:58;;;;;;;77.10;38.78;;;3.90;99.90;;;;;;5113969;28;20110;-58
2023/01/24 10:47:38;;;;;;;56.00;31.50;;;3.90;99.90;;;;;;5114344;28;20062;-58
2023/01/24 10:50:10;;;;;;;55.13;31.02;;;3.80;99.90;;;;;;5112729;28;20465;-58
2023/01/24 10:52:36;;;;;;;50.08;29.73;;;3.80;99.90;;;;;;5113890;28;20096;-58
2023/01/24 10:55:21;;;;;;;53.58;29.02;;;3.90;99.90;;;;;;5108346;28;20169;-58
2023/01/24 10:57:52;;;;;;;60.15;31.75;;;3.90;99.90;;;;;;5112743;28;20024;-58
2023/01/24 11:00:26;;;;;;;57.85;30.45;;;3.80;99.90;;;;;;5113728;28;20027;-58
2023/01/24 11:03:04;;;;;;;59.45;33.35;;;3.90;99.90;;;;;;5109470;28;20024;-58
2023/01/24 11:05:45;;;;;;;76.80;43.70;;;3.90;99.90;;;;;;5113296;28;20028;-58
2023/01/24 11:08:21;;;;;;;78.63;43.42;;;4.00;99.90;;;;;;5118028;28;20020;-58
2023/01/24 11:10:51;;;;;;;76.65;45.40;;;4.10;99.90;;;;;;5117056;28;20038;-58
2023/01/24 11:13:34;;;;;;;63.10;35.17;;;4.00;99.90;;;;;;5117576;28;20051;-58
2023/01/24 11:16:21;;;;;;;66.65;37.13;;;4.10;99.90;;;;;;5113580;28;20032;-58
2023/01/24 11:18:51;;;;;;;80.32;45.53;;;4.20;99.90;;;;;;5112407;28;20040;-58
2023/01/24 11:21:19;;;;;;;72.53;40.22;;;4.20;99.90;;;;;;5117542;28;20274;-58
2023/01/24 11:23:45;;;;;;;69.18;42.03;;;4.20;99.90;;;;;;5117760;28;20015;-58
2023/01/24 11:26:27;;;;;;;76.65;41.95;;;4.30;99.90;;;;;;5117815;28;20085;-58
2023/01/24 11:29:01;;;;;;;76.13;43.30;;;4.30;99.90;;;;;;5117001;28;20184;-58
2023/01/24 11:31:33;;;;;;;84.38;47.20;;;4.10;99.90;;;;;;5116342;28;20023;-58
2023/01/24 11:34:05;;;;;;;100.75;49.03;;;4.20;99.90;;;;;;5117032;28;20047;-58
2023/01/24 11:36:36;;;;;;;82.25;45.05;;;4.10;99.90;;;;;;5117170;28;20454;-57
2023/01/24 11:39:33;;;;;;;76.35;44.63;;;4.10;99.90;;;;;;5117875;28;20024;-58
2023/01/24 11:42:11;;;;;;;84.70;46.70;;;4.00;99.90;;;;;;5106385;28;20043;-58
2023/01/24 11:44:51;;;;;;;80.28;44.85;;;3.90;99.90;;;;;;5112999;28;20030;-58
2023/01/24 11:47:24;;;;;;;86.47;45.67;;;4.10;99.90;;;;;;5114230;28;20019;-58
2023/01/24 11:50:16;;;;;;;95.45;49.65;;;4.20;99.90;;;;;;5117277;28;20267;-58
2023/01/24 11:52:50;;;;;;;94.22;49.88;;;4.20;99.90;;;;;;5113416;28;20057;-58
2023/01/24 11:55:26;;;;;;;98.30;51.90;;;4.20;99.90;;;;;;5117928;28;20031;-58
2023/01/24 11:58:27;;;;;;;113.07;57.55;;;4.00;99.90;;;;;;5107624;28;20057;-58
2023/01/24 12:01:05;;;;;;;115.50;56.47;;;4.10;99.90;;;;;;5106208;28;20040;-58
2023/01/24 12:03:44;;;;;;;114.60;57.13;;;4.10;99.90;;;;;;5114339;28;20267;-58
2023/01/24 12:06:22;;;;;;;121.43;57.95;;;4.20;99.90;;;;;;5115655;28;20066;-58
2023/01/24 12:09:07;;;;;;;121.20;60.00;;;4.10;99.90;;;;;;5116258;28;20042;-57
2023/01/24 12:11:55;;;;;;;117.68;58.38;;;4.10;99.90;;;;;;5108229;28;20024;-58
2023/01/24 12:14:33;;;;;;;118.43;58.15;;;4.20;99.90;;;;;;5116054;28;20023;-58
2023/01/24 12:17:11;;;;;;;130.27;61.67;;;3.90;99.90;;;;;;5116703;28;20031;-58
2023/01/24 12:19:50;;;;;;;133.23;63.67;;;3.80;99.90;;;;;;5116336;28;20032;-58
2023/01/24 12:22:19;;;;;;;110.50;55.50;;;3.70;99.90;;;;;;5103688;27;20036;-58
2023/01/24 12:25:10;;;;;;;117.47;56.38;;;3.80;99.90;;;;;;5113997;28;20031;-57
2023/01/24 12:27:37;;;;;;;117.82;53.55;;;4.00;99.90;;;;;;5116678;28;20031;-57
2023/01/24 12:30:06;;;;;;;113.10;53.35;;;4.10;99.90;;;;;;5117245;28;20107;-58
2023/01/24 12:32:38;;;;;;;112.63;53.58;;;4.20;99.90;;;;;;5117141;28;20050;-57
2023/01/24 12:35:16;;;;;;;97.85;49.83;;;4.20;99.90;;;;;;5103829;27;20027;-58
2023/01/24 12:38:04;;;;;;;85.53;45.50;;;4.20;99.90;;;;;;5108083;28;20024;-58
2023/01/24 12:40:44;;;;;;;107.28;50.47;;;4.30;99.90;;;;;;5115883;27;20046;-58
2023/01/24 12:43:10;;;;;;;95.70;48.00;;;4.40;99.90;;;;;;5116762;27;20061;-58
2023/01/24 12:46:01;;;;;;;94.72;48.05;;;4.20;99.90;;;;;;5116963;28;20028;-58
2023/01/24 12:48:40;;;;;;;86.10;46.67;;;4.40;99.90;;;;;;5116643;28;20129;-57
2023/01/24 12:51:28;;;;;;;100.97;51.47;;;4.40;99.90;;;;;;5114140;28;20055;-58
2023/01/24 12:54:16;;;;;;;99.80;49.47;;;4.40;99.90;;;;;;5114605;28;20040;-58
2023/01/24 12:56:59;;;;;;;93.88;48.50;;;4.40;99.90;;;;;;5110911;28;20078;-58
2023/01/24 12:59:28;;;;;;;94.63;48.83;;;4.40;99.90;;;;;;5096120;28;20099;-58
2023/01/24 13:02:15;;;;;;;97.82;51.92;;;4.40;99.90;;;;;;5095404;28;20781;-58
2023/01/24 13:05:35;;;;;;;101.35;51.17;;;4.30;99.90;;;;;;5100117;28;20751;-57
2023/01/24 13:08:27;;;;;;;109.38;53.15;;;4.40;99.90;;;;;;5073132;28;20036;-58
2023/01/24 13:11:07;;;;;;;103.47;51.83;;;4.30;99.90;;;;;;5111566;28;20069;-58
2023/01/24 13:13:43;;;;;;;83.78;44.97;;;4.40;99.90;;;;;;5116170;28;20037;-58
2023/01/24 13:16:27;;;;;;;84.47;45.58;;;4.50;99.90;;;;;;5115359;27;20031;-58
2023/01/24 13:19:27;;;;;;;89.22;48.38;;;4.60;99.90;;;;;;5109216;28;20036;-58
2023/01/24 13:21:59;;;;;;;78.57;44.10;;;4.50;99.90;;;;;;5106775;28;20024;-58
2023/01/24 13:24:27;;;;;;;83.60;47.45;;;4.70;99.90;;;;;;5109311;28;20130;-58
2023/01/24 13:27:05;;;;;;;90.68;49.42;;;4.60;99.90;;;;;;5115154;28;20038;-58
2023/01/24 13:30:04;;;;;;;100.07;53.15;;;4.60;99.90;;;;;;5114784;28;20080;-58
2023/01/24 13:32:38;;;;;;;96.03;50.90;;;4.50;99.90;;;;;;5087028;28;20109;-58
2023/01/24 13:35:14;;;;;;;99.60;51.45;;;4.60;99.90;;;;;;5110842;28;20030;-58